Time;durP1;ratioP1;P1;durP2;ratioP2;P2;SDS_P1;SDS_P2;PMS_P1;PMS_P2;Temp;Humidity;BMP_temperature;BMP_pressure;BME280_temperature;BME280_humidity;BME280_pressure;Samples;Min_cycle;Max_cycle;Signal;HPM_P1;HPM_P2
2021/07/28 00:01:32;;;;;;;;;7.67;7.67;;;;;21.67;65.20;100599.16;5050208;28;45232;-57
2021/07/28 00:03:58;;;;;;;;;7.00;6.00;;;;;21.64;64.95;100591.25;5059106;28;47033;-58
2021/07/28 00:06:23;;;;;;;;;7.33;7.33;;;;;21.61;65.24;100594.19;5059017;28;45863;-58
2021/07/28 00:08:50;;;;;;;;;8.00;8.00;;;;;21.59;65.59;100596.97;5058514;27;45302;-60
2021/07/28 00:11:17;;;;;;;;;10.00;7.67;;;;;21.58;65.24;100594.38;5058572;28;45769;-58
2021/07/28 00:13:45;;;;;;;;;7.00;7.00;;;;;21.55;65.20;100590.06;5058552;28;47203;-58
2021/07/28 00:16:13;;;;;;;;;5.33;5.33;;;;;21.54;65.19;100588.34;5058649;28;45337;-58
2021/07/28 00:24:07;;;;;;;;;6.00;6.00;;;;;21.49;64.45;100589.63;5058231;28;48189;-58
2021/07/28 00:26:33;;;;;;;;;6.00;6.00;;;;;21.44;64.25;100588.09;5057977;28;45392;-57
2021/07/28 00:28:58;;;;;;;;;7.33;7.33;;;;;21.40;64.28;100583.03;5058503;28;45294;-58
2021/07/28 00:31:24;;;;;;;;;5.33;5.33;;;;;21.36;64.31;100581.50;5058433;28;45595;-58
2021/07/28 00:33:49;;;;;;;;;6.33;6.33;;;;;21.31;64.12;100587.22;5058008;28;47037;-57
2021/07/28 00:36:15;;;;;;;;;6.67;5.33;;;;;21.28;64.39;100587.41;5058073;28;45369;-57
2021/07/28 00:38:40;;;;;;;;;5.00;5.00;;;;;21.26;64.12;100585.81;5049414;28;45376;-58
2021/07/28 00:41:06;;;;;;;;;7.00;6.00;;;;;21.22;64.19;100579.72;5062574;28;45488;-57
2021/07/28 00:43:32;;;;;;;;;10.00;10.00;;;;;21.20;63.96;100578.06;5061338;28;47322;-57
2021/07/28 00:45:58;;;;;;;;;6.67;6.00;;;;;21.17;63.77;100579.16;5059953;28;45902;-58
2021/07/28 00:48:23;;;;;;;;;7.00;7.00;;;;;21.14;63.93;100582.06;5080546;27;45849;-57
2021/07/28 00:50:49;;;;;;;;;6.00;5.00;;;;;21.09;63.60;100566.19;5081351;27;45533;-58
2021/07/28 00:53:18;;;;;;;;;5.00;5.00;;;;;21.07;63.63;100564.56;5063384;28;48056;-58
2021/07/28 00:55:46;;;;;;;;;6.00;6.00;;;;;21.04;63.59;100571.03;5080623;27;45380;-58
2021/07/28 00:58:11;;;;;;;;;5.33;5.33;;;;;21.01;63.78;100570.38;5046501;27;45463;-57
2021/07/28 01:00:37;;;;;;;;;4.00;4.00;;;;;21.00;64.27;100565.94;5079112;27;45294;-57
2021/07/28 01:03:02;;;;;;;;;3.33;3.00;;;;;20.98;63.59;100574.16;5075517;27;47239;-58
2021/07/28 01:05:28;;;;;;;;;4.33;4.33;;;;;20.96;63.58;100576.09;5081358;27;45349;-57
2021/07/28 01:07:53;;;;;;;;;5.33;5.33;;;;;20.95;63.84;100576.16;5060658;28;45420;-58
2021/07/28 01:10:19;;;;;;;;;6.33;4.33;;;;;20.93;63.72;100576.28;5081678;27;45279;-58
2021/07/28 01:12:52;;;;;;;;;4.00;4.00;;;;;20.91;63.76;100577.34;5080891;27;47518;-57
2021/07/28 01:18:01;;;;;;;;;4.00;2.67;;;;;20.85;63.69;100576.81;5080938;27;45557;-57
2021/07/28 01:20:32;;;;;;;;;2.00;2.00;;;;;20.83;63.30;100575.16;5081494;27;45988;-58
2021/07/28 01:23:01;;;;;;;;;4.00;3.33;;;;;20.81;63.93;100586.03;5080559;27;48315;-57
2021/07/28 01:25:28;;;;;;;;;3.67;3.67;;;;;20.78;63.55;100585.38;5062860;28;46488;-57
2021/07/28 01:27:54;;;;;;;;;4.00;4.00;;;;;20.76;63.17;100581.94;5080976;27;45425;-57
2021/07/28 01:30:20;;;;;;;;;4.00;4.00;;;;;20.75;63.64;100583.78;5081074;27;45790;-58
2021/07/28 01:32:49;;;;;;;;;7.00;5.00;;;;;20.75;63.12;100591.00;5080452;27;47171;-57
2021/07/28 01:35:15;;;;;;;;;4.00;4.00;;;;;20.73;63.21;100583.00;5080948;28;46097;-58
2021/07/28 01:37:44;;;;;;;;;4.67;4.67;;;;;20.75;63.71;100585.59;5076606;27;45302;-58
2021/07/28 01:40:12;;;;;;;;;3.33;3.33;;;;;20.76;63.00;100585.50;5072266;27;45316;-57
2021/07/28 01:42:45;;;;;;;;;2.00;2.00;;;;;20.79;63.63;100589.81;5080136;27;47322;-58
2021/07/28 01:45:12;;;;;;;;;3.00;3.00;;;;;20.78;62.85;100582.69;5076592;27;45370;-57
2021/07/28 01:47:38;;;;;;;;;3.00;2.00;;;;;20.78;62.79;100585.38;5078416;27;45419;-57
2021/07/28 01:50:07;;;;;;;;;3.33;3.33;;;;;20.78;63.37;100586.25;5080188;27;45364;-58
2021/07/28 01:52:34;;;;;;;;;4.00;4.00;;;;;20.78;63.08;100588.94;5062260;28;47661;-58
2021/07/28 01:55:00;;;;;;;;;5.00;4.00;;;;;20.77;62.64;100589.91;5080662;27;45920;-57
2021/07/28 01:57:26;;;;;;;;;3.00;3.00;;;;;20.79;62.65;100592.50;5080309;27;45401;-57
2021/07/28 01:59:51;;;;;;;;;3.67;3.00;;;;;20.78;62.92;100598.88;5080971;27;45287;-57
2021/07/28 02:02:17;;;;;;;;;5.33;4.00;;;;;20.77;62.44;100589.91;5062016;28;46807;-58
2021/07/28 02:04:43;;;;;;;;;3.67;3.00;;;;;20.76;62.60;100600.81;5080363;27;45575;-57
2021/07/28 02:07:08;;;;;;;;;3.00;3.00;;;;;20.76;62.22;100596.28;5058989;28;45488;-58
2021/07/28 02:09:34;;;;;;;;;1.00;1.00;;;;;20.78;62.32;100598.88;5073756;27;45344;-58
2021/07/28 02:11:59;;;;;;;;;3.00;3.00;;;;;20.79;61.84;100606.00;5080236;27;47208;-58
2021/07/28 02:14:25;;;;;;;;;3.67;3.67;;;;;20.78;62.38;100604.28;5080094;27;45924;-57
2021/07/28 02:16:51;;;;;;;;;3.00;3.00;;;;;20.80;62.54;100605.03;5061925;28;45562;-58
2021/07/28 02:19:16;;;;;;;;;3.33;3.33;;;;;20.78;62.09;100607.84;5080776;27;45323;-57
2021/07/28 02:21:42;;;;;;;;;1.67;1.67;;;;;20.78;61.83;100601.56;5079938;27;47339;-58
2021/07/28 02:24:07;;;;;;;;;2.00;2.00;;;;;20.77;61.87;100606.09;5080115;27;46269;-58
2021/07/28 02:26:33;;;;;;;;;3.00;2.67;;;;;20.77;62.09;100602.53;5080195;27;45400;-57
2021/07/28 02:28:58;;;;;;;;;4.33;4.00;;;;;20.75;62.04;100605.34;5079932;28;45278;-57
2021/07/28 02:31:24;;;;;;;;;2.67;2.67;;;;;20.75;61.87;100599.09;5079752;27;48347;-57
2021/07/28 02:33:49;;;;;;;;;3.00;3.00;;;;;20.74;61.98;100609.00;5061824;28;45829;-57
2021/07/28 02:36:15;;;;;;;;;4.67;4.67;;;;;20.73;61.97;100606.41;5079898;27;45460;-58
2021/07/28 02:38:40;;;;;;;;;3.67;3.67;;;;;20.71;61.87;100609.22;5061581;28;45342;-58
2021/07/28 02:41:05;;;;;;;;;3.33;2.67;;;;;20.71;61.41;100605.63;5059047;28;47750;-57
2021/07/28 02:43:31;;;;;;;;;3.33;3.00;;;;;20.70;61.35;100603.91;5072136;27;46044;-58
2021/07/28 02:45:56;;;;;;;;;3.00;3.00;;;;;20.69;61.56;100607.56;5040469;27;45594;-58
2021/07/28 02:48:22;;;;;;;;;6.00;2.00;;;;;20.67;61.84;100601.41;5078823;27;45552;-57
2021/07/28 02:50:47;;;;;;;;;3.00;3.00;;;;;20.65;60.99;100604.22;5061163;28;47444;-57
2021/07/28 02:53:13;;;;;;;;;2.00;2.00;;;;;20.64;60.91;100605.19;5080037;28;45540;-57
2021/07/28 02:55:38;;;;;;;;;2.00;2.00;;;;;20.62;61.35;100609.81;5079733;27;45346;-58
2021/07/28 02:58:04;;;;;;;;;3.33;3.33;;;;;20.63;61.00;100610.69;5079836;27;45424;-57
2021/07/28 03:00:29;;;;;;;;;5.00;4.00;;;;;20.63;60.95;100613.38;5077880;27;47150;-57
2021/07/28 03:02:54;;;;;;;;;3.00;3.00;;;;;20.61;61.02;100610.78;5072138;27;45298;-58
2021/07/28 03:05:20;;;;;;;;;2.33;2.00;;;;;20.61;61.06;100615.31;5079947;27;45310;-57
2021/07/28 03:07:45;;;;;;;;;2.67;2.67;;;;;20.60;60.77;100616.28;5080001;27;45296;-58
2021/07/28 03:10:11;;;;;;;;;2.67;2.67;;;;;20.58;60.74;100621.75;5079524;27;48058;-57
2021/07/28 03:12:37;;;;;;;;;2.00;2.00;;;;;20.57;60.45;100622.69;5079496;27;45502;-58
2021/07/28 03:15:03;;;;;;;;;3.00;3.00;;;;;20.57;60.39;100628.97;5061271;27;45397;-57
2021/07/28 03:17:29;;;;;;;;;3.00;3.00;;;;;20.55;60.40;100625.50;5080121;27;45783;-57
2021/07/28 03:19:54;;;;;;;;;2.00;2.00;;;;;20.56;60.61;100623.66;5079178;27;46727;-57
2021/07/28 03:22:20;;;;;;;;;2.00;2.00;;;;;20.56;60.38;100629.06;5079962;27;45409;-58
2021/07/28 03:24:45;;;;;;;;;3.00;3.00;;;;;20.55;60.30;100633.59;5061313;28;45595;-57
2021/07/28 03:27:11;;;;;;;;;2.33;2.33;;;;;20.54;60.33;100623.78;5079448;27;45250;-58
2021/07/28 03:29:36;;;;;;;;;2.00;2.00;;;;;20.54;60.46;100634.56;5079000;28;47406;-57
2021/07/28 03:32:02;;;;;;;;;3.00;3.00;;;;;20.52;60.49;100631.09;5079148;28;45317;-57
2021/07/28 03:34:27;;;;;;;;;4.00;2.33;;;;;20.52;60.08;100633.78;5079268;27;45492;-57
2021/07/28 03:36:53;;;;;;;;;3.00;3.00;;;;;20.51;59.82;100623.13;5079251;27;45274;-58
2021/07/28 03:39:19;;;;;;;;;3.00;2.00;;;;;20.50;60.10;100632.16;5061770;27;48457;-58
2021/07/28 03:41:44;;;;;;;;;2.00;2.00;;;;;20.51;60.20;100628.50;5079276;27;45260;-58
2021/07/28 03:44:10;;;;;;;;;3.67;3.67;;;;;20.48;59.78;100634.97;5079178;27;45332;-57
2021/07/28 03:46:35;;;;;;;;;4.00;3.00;;;;;20.49;60.24;100622.34;5074816;28;45390;-58
2021/07/28 03:49:01;;;;;;;;;2.67;2.67;;;;;20.48;59.73;100636.81;5057469;28;48340;-57
2021/07/28 03:51:26;;;;;;;;;2.33;2.33;;;;;20.45;59.54;100629.75;5070373;27;45531;-58
2021/07/28 03:53:52;;;;;;;;;3.33;3.33;;;;;20.45;59.63;100631.59;5061129;28;45425;-57
2021/07/28 03:56:22;;;;;;;;;2.00;2.00;;;;;20.44;59.92;100632.53;5079210;27;45474;-57
2021/07/28 03:58:49;;;;;;;;;2.67;2.00;;;;;20.42;59.99;100629.09;5060380;28;48068;-57
2021/07/28 04:01:14;;;;;;;;;3.00;3.00;;;;;20.42;59.71;100632.66;5071223;28;45341;-57
2021/07/28 04:03:40;;;;;;;;;2.00;2.00;;;;;20.41;59.37;100638.09;5077677;27;45392;-57
2021/07/28 04:06:05;;;;;;;;;3.33;3.33;;;;;20.39;59.18;100637.34;5079324;27;45668;-57
2021/07/28 04:08:31;;;;;;;;;2.33;2.33;;;;;20.40;59.69;100642.63;5078628;27;47173;-57
2021/07/28 04:10:56;;;;;;;;;3.00;3.00;;;;;20.40;59.24;100648.03;5078930;27;45361;-57
2021/07/28 04:13:22;;;;;;;;;1.67;1.67;;;;;20.40;59.53;100648.03;5085165;27;45406;-57
2021/07/28 04:15:47;;;;;;;;;2.00;2.00;;;;;20.40;59.09;100655.25;5085613;27;45778;-58
2021/07/28 04:18:12;;;;;;;;;3.33;3.33;;;;;20.40;59.07;100655.25;5063576;28;46932;-58
2021/07/28 04:20:38;;;;;;;;;3.00;3.00;;;;;20.38;58.68;100655.34;5058985;28;45751;-58
2021/07/28 04:23:03;;;;;;;;;3.00;3.00;;;;;20.38;58.72;100651.78;5085630;27;45501;-58
2021/07/28 04:25:29;;;;;;;;;4.00;3.00;;;;;20.37;58.83;100656.31;5085725;27;45656;-58
2021/07/28 04:27:54;;;;;;;;;2.67;2.67;;;;;20.37;59.09;100650.94;5063606;28;48487;-58
2021/07/28 04:30:21;;;;;;;;;2.67;2.67;;;;;20.37;58.68;100660.84;5077851;27;45397;-58
2021/07/28 04:32:46;;;;;;;;;2.00;2.00;;;;;20.37;58.66;100663.53;5050400;28;45800;-57
2021/07/28 04:35:12;;;;;;;;;2.00;1.67;;;;;20.35;58.40;100654.69;5085503;27;45291;-58
2021/07/28 04:37:38;;;;;;;;;4.00;4.00;;;;;20.35;58.53;100665.47;5066672;28;47367;-58
2021/07/28 04:40:04;;;;;;;;;3.00;1.67;;;;;20.35;58.79;100652.00;5066003;28;45804;-58
2021/07/28 04:42:30;;;;;;;;;1.67;1.00;;;;;20.34;58.63;100659.22;5084983;27;45250;-58
2021/07/28 04:44:56;;;;;;;;;5.00;4.00;;;;;20.35;58.25;100660.06;5083262;27;45523;-58
2021/07/28 04:47:21;;;;;;;;;3.00;2.00;;;;;20.34;58.46;100666.44;5080990;27;47202;-58
2021/07/28 04:49:47;;;;;;;;;2.00;2.00;;;;;20.31;57.57;100662.06;5050327;28;45543;-58
2021/07/28 04:52:13;;;;;;;;;2.00;2.00;;;;;20.29;58.20;100661.31;5085167;27;45331;-58
2021/07/28 04:54:38;;;;;;;;;2.00;2.00;;;;;20.29;58.31;100667.56;5085061;27;45264;-58
2021/07/28 04:57:05;;;;;;;;;2.00;2.00;;;;;20.32;57.96;100662.94;5049613;27;45343;-58
2021/07/28 04:59:31;;;;;;;;;2.00;2.00;;;;;20.34;58.47;100667.28;5066734;28;45477;-58
2021/07/28 05:01:56;;;;;;;;;2.00;2.00;;;;;20.36;57.91;100675.28;5075605;27;45485;-58
2021/07/28 05:04:22;;;;;;;;;3.00;2.00;;;;;20.38;57.95;100662.56;5085307;27;45313;-58
2021/07/28 05:06:47;;;;;;;;;3.00;1.33;;;;;20.39;58.16;100657.06;5066276;27;47166;-58
2021/07/28 05:09:14;;;;;;;;;2.00;2.00;;;;;20.42;58.17;100669.53;5085082;27;45346;-58
2021/07/28 05:11:40;;;;;;;;;1.00;1.00;;;;;20.40;57.71;100672.28;5084714;27;45378;-58
2021/07/28 05:14:05;;;;;;;;;2.00;2.00;;;;;20.42;57.64;100669.53;5085208;27;45768;-58
2021/07/28 05:16:31;;;;;;;;;2.00;2.00;;;;;20.42;57.45;100672.22;5084578;27;47326;-58
2021/07/28 05:18:56;;;;;;;;;2.33;2.33;;;;;20.42;57.62;100680.31;5084753;27;45586;-58
2021/07/28 05:21:22;;;;;;;;;3.00;3.00;;;;;20.42;57.80;100673.09;5084814;27;45474;-58
2021/07/28 05:23:47;;;;;;;;;3.00;1.00;;;;;20.42;57.76;100685.69;5082663;27;45636;-58
2021/07/28 05:26:13;;;;;;;;;2.67;2.00;;;;;20.41;57.88;100684.78;5081181;27;47134;-58
2021/07/28 05:28:38;;;;;;;;;6.00;3.00;;;;;20.41;57.17;100682.09;5081088;27;45733;-58
2021/07/28 05:31:04;;;;;;;;;3.00;2.00;;;;;20.42;57.40;100680.31;5081213;27;45495;-58
2021/07/28 05:33:29;;;;;;;;;5.67;2.00;;;;;20.44;57.67;100681.94;5081761;27;45382;-58
2021/07/28 05:35:55;;;;;;;;;5.00;3.00;;;;;20.45;57.77;100672.00;5081293;27;47365;-58
2021/07/28 05:38:20;;;;;;;;;3.33;3.00;;;;;20.48;57.63;100682.63;5071720;27;45798;-58
2021/07/28 05:40:46;;;;;;;;;3.00;3.00;;;;;20.48;57.00;100680.78;5076968;27;45401;-58
2021/07/28 05:43:11;;;;;;;;;3.00;3.00;;;;;20.50;57.43;100683.41;5081663;27;45243;-58
2021/07/28 05:45:37;;;;;;;;;3.00;2.00;;;;;20.52;57.30;100681.47;5076970;27;47463;-59
2021/07/28 05:48:02;;;;;;;;;3.00;3.00;;;;;20.54;57.19;100688.47;5081465;28;45338;-58
2021/07/28 05:50:28;;;;;;;;;3.67;3.00;;;;;20.56;57.68;100685.69;5062964;27;45520;-57
2021/07/28 05:52:53;;;;;;;;;4.00;4.00;;;;;20.58;57.72;100691.84;5081134;27;45828;-58
2021/07/28 05:55:19;;;;;;;;;2.67;1.67;;;;;20.61;57.23;100694.38;5080716;27;48009;-58
2021/07/28 05:57:47;;;;;;;;;3.00;3.00;;;;;20.65;57.19;100697.72;5062615;28;45354;-58
2021/07/28 06:00:13;;;;;;;;;1.67;1.67;;;;;20.71;57.07;100697.31;5080804;27;45704;-58
2021/07/28 06:02:39;;;;;;;;;2.00;2.00;;;;;20.72;57.57;100691.84;5059328;28;45434;-58
2021/07/28 06:05:05;;;;;;;;;2.00;2.00;;;;;20.71;57.01;100684.72;5080784;27;46313;-58
2021/07/28 06:07:30;;;;;;;;;2.00;2.00;;;;;20.73;57.38;100695.41;5072689;28;45870;-58
2021/07/28 06:09:55;;;;;;;;;2.33;2.33;;;;;20.76;57.44;100703.31;5080918;27;45649;-59
2021/07/28 06:12:21;;;;;;;;;1.00;1.00;;;;;20.76;56.89;100703.31;5080938;27;45230;-58
2021/07/28 06:14:47;;;;;;;;;4.00;4.00;;;;;20.75;57.05;100702.44;5060631;27;47612;-59
2021/07/28 06:17:13;;;;;;;;;2.00;2.00;;;;;20.77;56.67;100705.03;5080290;27;45507;-58
2021/07/28 06:19:39;;;;;;;;;5.00;3.00;;;;;20.78;56.86;100706.75;5080652;27;45676;-58
2021/07/28 06:22:05;;;;;;;;;3.00;3.00;;;;;20.78;56.93;100704.94;5081007;27;45291;-58
2021/07/28 06:24:31;;;;;;;;;3.67;3.67;;;;;20.79;57.13;100703.97;5080788;27;46427;-58
2021/07/28 06:26:57;;;;;;;;;3.00;3.00;;;;;20.82;56.93;100708.28;5080557;27;45703;-56
2021/07/28 06:29:25;;;;;;;;;3.00;3.00;;;;;20.84;57.03;100701.84;5059071;28;45406;-58
2021/07/28 06:31:51;;;;;;;;;3.33;3.00;;;;;20.86;56.89;100705.31;5072465;27;45466;-57
2021/07/28 06:34:17;;;;;;;;;2.00;2.00;;;;;20.89;56.98;100711.47;5080026;27;47904;-58
2021/07/28 06:36:43;;;;;;;;;4.00;4.00;;;;;20.91;56.62;100717.63;5079991;27;45564;-58
2021/07/28 06:39:08;;;;;;;;;2.33;1.67;;;;;20.92;57.13;100714.81;5068524;27;45385;-58
2021/07/28 06:41:34;;;;;;;;;3.00;3.00;;;;;20.92;57.23;100712.13;5062504;28;45366;-58
2021/07/28 06:43:59;;;;;;;;;4.00;3.33;;;;;20.95;57.19;100716.44;5061518;28;47471;-58
2021/07/28 06:46:25;;;;;;;;;2.00;2.00;;;;;21.00;57.07;100708.94;5075814;27;45624;-58
2021/07/28 06:48:50;;;;;;;;;4.67;3.00;;;;;21.04;57.00;100707.78;5060061;27;45672;-58
2021/07/28 06:51:16;;;;;;;;;3.00;3.00;;;;;21.08;57.15;100707.44;5080482;27;45595;-58
2021/07/28 06:53:41;;;;;;;;;1.67;1.67;;;;;21.15;56.94;100710.63;5079676;27;47151;-58
2021/07/28 06:56:07;;;;;;;;;3.33;3.33;;;;;21.19;56.07;100714.84;5080125;27;45369;-57
2021/07/28 06:58:32;;;;;;;;;3.33;3.33;;;;;21.24;56.64;100711.88;5079772;27;45687;-58
2021/07/28 07:00:59;;;;;;;;;2.33;2.33;;;;;21.27;56.13;100717.09;5062032;28;45552;-58
2021/07/28 07:03:25;;;;;;;;;5.67;2.67;;;;;21.28;55.88;100721.53;5079813;27;47793;-58
2021/07/28 07:05:50;;;;;;;;;4.00;4.00;;;;;21.27;55.83;100723.34;5061975;28;45644;-58
2021/07/28 07:08:16;;;;;;;;;4.00;3.00;;;;;21.28;55.68;100726.91;5079940;27;45476;-58
2021/07/28 07:10:42;;;;;;;;;3.33;2.33;;;;;21.29;56.28;100729.50;5079964;27;45369;-57
2021/07/28 07:13:07;;;;;;;;;1.33;1.33;;;;;21.31;55.89;100730.28;5079952;27;45272;-58
2021/07/28 07:15:33;;;;;;;;;2.00;2.00;;;;;21.31;56.17;100729.41;5080061;27;45374;-58
2021/07/28 07:17:58;;;;;;;;;2.00;2.00;;;;;21.33;55.81;100732.88;5080205;27;45304;-59
2021/07/28 07:20:24;;;;;;;;;3.33;2.00;;;;;21.35;55.93;100730.97;5080252;27;45256;-59
2021/07/28 07:22:49;;;;;;;;;2.00;2.00;;;;;21.37;55.88;100737.97;5060739;27;47109;-59
2021/07/28 07:25:15;;;;;;;;;2.67;2.67;;;;;21.41;55.92;100734.09;5079664;27;45519;-59
2021/07/28 07:27:42;;;;;;;;;4.67;3.67;;;;;21.44;55.52;100733.03;5079342;27;46330;-58
2021/07/28 07:30:09;;;;;;;;;2.00;2.00;;;;;21.48;55.92;100733.72;5062392;28;45508;-57
2021/07/28 07:32:35;;;;;;;;;2.33;1.67;;;;;21.53;56.40;100737.81;5060574;28;47334;-57
2021/07/28 07:35:00;;;;;;;;;4.00;4.00;;;;;21.57;56.28;100742.03;5079750;27;45409;-57
2021/07/28 07:37:26;;;;;;;;;5.00;4.67;;;;;21.58;56.17;100732.97;5077475;27;46378;-58
2021/07/28 07:39:52;;;;;;;;;2.33;2.00;;;;;21.62;55.86;100733.66;5050244;28;46066;-58
2021/07/28 07:42:18;;;;;;;;;2.33;2.33;;;;;21.67;56.00;100736.88;5060959;27;47352;-58
2021/07/28 07:44:45;;;;;;;;;6.00;6.00;;;;;21.71;55.83;100735.69;5060764;28;46062;-58
2021/07/28 07:47:14;;;;;;;;;3.00;3.00;;;;;21.75;55.55;100739.94;5054959;27;45410;-58
2021/07/28 07:49:39;;;;;;;;;4.67;4.00;;;;;21.79;55.64;100738.75;5061415;28;45602;-58
2021/07/28 07:52:05;;;;;;;;;4.00;4.00;;;;;21.79;55.38;100741.47;5078718;27;47250;-58
2021/07/28 07:54:31;;;;;;;;;4.00;3.00;;;;;21.77;55.74;100735.31;5079144;27;45987;-58
2021/07/28 07:56:56;;;;;;;;;2.33;2.33;;;;;21.79;55.73;100740.59;5060562;28;45436;-58
2021/07/28 07:59:21;;;;;;;;;6.00;6.00;;;;;21.85;55.72;100741.06;5079742;28;45357;-58
2021/07/28 08:01:47;;;;;;;;;3.33;3.33;;;;;21.88;55.67;100740.84;5069769;27;48075;-57
2021/07/28 08:04:13;;;;;;;;;4.33;4.00;;;;;21.91;55.88;100737.06;5079008;27;46350;-59
2021/07/28 08:06:38;;;;;;;;;3.33;3.33;;;;;21.96;55.47;100737.59;5079103;27;45409;-59
2021/07/28 08:09:04;;;;;;;;;3.00;3.00;;;;;22.00;55.14;100728.31;5079394;28;45270;-59
2021/07/28 08:11:30;;;;;;;;;5.00;3.00;;;;;22.02;55.16;100734.50;5043563;28;46149;-59
2021/07/28 08:13:55;;;;;;;;;2.00;2.00;;;;;22.06;55.23;100732.47;5079014;27;45571;-58
2021/07/28 08:16:22;;;;;;;;;3.00;3.00;;;;;22.09;54.53;100727.69;5060763;28;45513;-59
2021/07/28 08:18:49;;;;;;;;;3.00;3.00;;;;;22.10;54.45;100731.28;5078950;27;45262;-58
2021/07/28 08:21:16;;;;;;;;;2.33;2.00;;;;;22.12;54.36;100732.06;5078226;27;47149;-59
2021/07/28 08:23:45;;;;;;;;;3.00;3.00;;;;;22.13;54.15;100740.06;5078707;27;45410;-59
2021/07/28 08:26:14;;;;;;;;;3.00;3.00;;;;;22.15;54.03;100734.53;5078578;28;45505;-59
2021/07/28 08:28:40;;;;;;;;;4.33;4.00;;;;;22.10;53.93;100734.84;5078257;28;45634;-57
2021/07/28 08:31:06;;;;;;;;;4.33;3.67;;;;;22.03;54.28;100745.19;5078021;27;47087;-57
2021/07/28 08:33:31;;;;;;;;;1.33;1.33;;;;;21.94;53.89;100729.59;5060418;28;45450;-58
2021/07/28 08:35:58;;;;;;;;;2.33;2.00;;;;;21.85;53.90;100724.84;5078344;27;45653;-59
2021/07/28 08:38:25;;;;;;;;;2.67;2.67;;;;;21.77;53.47;100723.63;5068592;28;45355;-57
2021/07/28 08:40:58;;;;;;;;;3.67;3.33;;;;;21.68;53.59;100723.28;5075266;27;45813;-57
2021/07/28 08:43:28;;;;;;;;;2.00;2.00;;;;;21.63;53.48;100727.28;5078226;27;45443;-57
2021/07/28 08:45:57;;;;;;;;;2.00;2.00;;;;;21.58;53.37;100730.25;5055055;28;45520;-57
2021/07/28 08:48:23;;;;;;;;;2.67;2.67;;;;;21.56;53.24;100724.09;5077709;28;45402;-57
2021/07/28 08:50:51;;;;;;;;;2.00;2.00;;;;;21.54;53.43;100727.88;5077961;27;46341;-58
2021/07/28 08:53:16;;;;;;;;;2.67;1.67;;;;;21.52;53.27;100732.53;5078363;27;45443;-59
2021/07/28 08:55:44;;;;;;;;;2.00;2.00;;;;;21.54;52.42;100720.66;5077931;27;45349;-57
2021/07/28 08:58:13;;;;;;;;;3.00;3.00;;;;;21.58;52.94;100726.69;5079956;28;45480;-57
2021/07/28 09:00:43;;;;;;;;;3.33;1.67;;;;;21.66;52.45;100730.63;5078277;27;47187;-58
2021/07/28 09:03:09;;;;;;;;;3.00;3.00;;;;;21.74;52.02;100727.41;5076268;27;46253;-56
2021/07/28 09:05:48;;;;;;;;;3.00;1.00;;;;;21.84;52.15;100727.63;5082040;27;46367;-59
2021/07/28 09:08:27;;;;;;;;;2.00;2.00;;;;;21.89;51.67;100734.47;5082266;27;45436;-58
2021/07/28 09:11:03;;;;;;;;;2.00;2.00;;;;;21.93;51.52;100729.72;5062981;28;45421;-57
2021/07/28 09:13:40;;;;;;;;;2.00;2.00;;;;;21.97;51.63;100726.69;5081833;27;45390;-57
2021/07/28 09:16:17;;;;;;;;;1.00;1.00;;;;;22.04;52.20;100738.81;5063335;27;45434;-58
2021/07/28 09:18:46;;;;;;;;;2.00;2.00;;;;;22.15;51.87;100737.25;5081304;27;45409;-58
2021/07/28 09:21:21;;;;;;;;;3.33;2.33;;;;;22.26;51.87;100738.22;5081240;27;45675;-57
2021/07/28 09:23:48;;;;;;;;;1.67;1.67;;;;;22.34;51.48;100721.44;5081049;27;45610;-58
2021/07/28 09:26:31;;;;;;;;;2.00;2.00;;;;;22.44;51.03;100741.47;5081312;27;46355;-58
2021/07/28 09:29:04;;;;;;;;;2.67;2.00;;;;;22.55;51.02;100735.28;5081084;27;45393;-57
2021/07/28 09:31:35;;;;;;;;;2.00;2.00;;;;;22.63;50.99;100722.09;5081006;27;46975;-58
2021/07/28 09:34:22;;;;;;;;;3.00;2.67;;;;;22.70;50.74;100733.31;5081103;27;45356;-58
2021/07/28 09:36:49;;;;;;;;;3.00;3.00;;;;;22.75;50.56;100726.63;5080980;27;45387;-59
2021/07/28 09:39:33;;;;;;;;;2.00;2.00;;;;;22.79;50.06;100743.50;5068469;27;45279;-58
2021/07/28 09:42:20;;;;;;;;;2.33;2.33;;;;;22.82;50.21;100736.00;5062478;28;46368;-59
2021/07/28 09:44:48;;;;;;;;;2.00;2.00;;;;;22.86;49.87;100739.38;5069065;27;45867;-59
2021/07/28 09:47:15;;;;;;;;;1.33;1.33;;;;;22.89;49.84;100739.19;5074913;27;45425;-59
2021/07/28 09:49:44;;;;;;;;;4.00;2.00;;;;;22.97;49.87;100744.03;5062893;28;45656;-59
2021/07/28 09:52:19;;;;;;;;;2.00;2.00;;;;;22.99;49.82;100734.81;5080489;27;48248;-59
2021/07/28 09:54:46;;;;;;;;;2.00;2.00;;;;;23.03;49.61;100738.19;5080345;27;45821;-59
2021/07/28 09:57:15;;;;;;;;;2.00;2.00;;;;;;;;5080445;27;45311;-58
2021/07/28 09:59:45;;;;;;;;;2.00;2.00;;;;;23.11;49.44;100741.16;5081229;27;45853;-59
2021/07/28 10:02:14;;;;;;;;;2.67;2.67;;;;;23.13;49.49;100744.66;5071863;27;46964;-59
2021/07/28 10:04:53;;;;;;;;;1.00;1.00;;;;;23.17;49.48;100744.28;5080330;27;45988;-59
2021/07/28 10:07:23;;;;;;;;;1.33;1.33;;;;;23.17;49.39;100746.16;5081156;27;45442;-59
2021/07/28 10:10:01;;;;;;;;;2.00;2.00;;;;;23.13;48.61;100737.38;5060883;27;45469;-59
2021/07/28 10:12:27;;;;;;;;;2.00;1.67;;;;;23.05;48.17;100741.63;5080357;27;47958;-59
2021/07/28 10:14:54;;;;;;;;;2.00;2.00;;;;;22.98;48.73;100745.75;5080228;27;45543;-59
2021/07/28 10:17:21;;;;;;;;;3.00;3.00;;;;;22.90;48.54;100746.31;5080657;27;45388;-58
2021/07/28 10:19:48;;;;;;;;;2.00;2.00;;;;;22.86;48.46;100742.09;5062836;28;45398;-59
2021/07/28 10:22:14;;;;;;;;;2.00;2.00;;;;;22.80;48.54;100739.81;5080679;27;45463;-58
2021/07/28 10:24:39;;;;;;;;;2.00;2.00;;;;;22.78;48.63;100739.06;5080258;27;45781;-59
2021/07/28 10:27:06;;;;;;;;;3.00;3.00;;;;;22.80;48.86;100740.69;5080334;27;45413;-59
2021/07/28 10:29:31;;;;;;;;;1.67;1.67;;;;;22.82;48.82;100749.53;5080621;27;45357;-58
2021/07/28 10:31:57;;;;;;;;;1.00;1.00;;;;;22.84;48.23;100744.03;5079835;27;47776;-58
2021/07/28 10:34:28;;;;;;;;;2.00;2.00;;;;;22.88;48.63;100746.44;5080175;27;45617;-58
2021/07/28 10:37:02;;;;;;;;;2.00;2.00;;;;;22.87;48.45;100739.31;5080055;28;45466;-58
2021/07/28 10:39:48;;;;;;;;;1.33;1.33;;;;;22.85;48.35;100743.06;5067864;27;45409;-58
2021/07/28 10:42:23;;;;;;;;;3.33;3.33;;;;;22.84;48.44;100738.63;5079546;27;47012;-59
2021/07/28 10:45:09;;;;;;;;;2.00;1.00;;;;;22.86;48.45;100739.38;5077298;27;45388;-58
2021/07/28 10:47:39;;;;;;;;;3.67;3.67;;;;;22.87;48.46;100731.19;5077749;27;45373;-57
2021/07/28 10:50:21;;;;;;;;;2.00;2.00;;;;;22.88;48.35;100740.16;5080241;27;45530;-58
2021/07/28 10:52:57;;;;;;;;;2.67;1.67;;;;;22.90;48.29;100735.50;5057798;28;45403;-57
2021/07/28 10:55:24;;;;;;;;;3.00;3.00;;;;;22.90;48.37;100738.22;5077153;27;45338;-58
2021/07/28 10:57:53;;;;;;;;;2.00;2.00;;;;;22.93;48.18;100732.56;5080101;27;45744;-58
2021/07/28 11:00:47;;;;;;;;;3.67;3.00;;;;;22.95;47.72;100737.84;5079975;27;45409;-56
2021/07/28 11:03:14;;;;;;;;;2.33;2.00;;;;;22.98;48.09;100734.91;5065129;27;47384;-58
2021/07/28 11:05:40;;;;;;;;;1.00;1.00;;;;;23.09;47.81;100735.00;5079883;27;45423;-57
2021/07/28 11:08:06;;;;;;;;;3.00;3.00;;;;;23.21;48.36;100739.50;5079343;27;45511;-58
2021/07/28 11:10:34;;;;;;;;;2.00;2.00;;;;;23.32;47.57;100730.59;5058455;28;45586;-58
2021/07/28 11:13:07;;;;;;;;;2.00;1.00;;;;;23.45;47.26;100736.81;5057353;28;47040;-58
2021/07/28 11:15:33;;;;;;;;;2.00;2.00;;;;;23.55;47.15;100731.59;5057966;28;45468;-58
2021/07/28 11:17:59;;;;;;;;;4.00;3.00;;;;;23.64;46.90;100729.09;5076574;27;45473;-58
2021/07/28 11:20:30;;;;;;;;;2.00;2.00;;;;;23.70;46.52;100728.59;5061487;28;45620;-58
2021/07/28 11:23:20;;;;;;;;;2.00;2.00;;;;;23.78;46.42;100728.88;5079209;27;48273;-58
2021/07/28 11:25:49;;;;;;;;;2.00;2.00;;;;;23.82;45.71;100728.66;5079532;27;45856;-58
2021/07/28 11:28:17;;;;;;;;;2.67;2.33;;;;;23.78;45.96;100726.19;5079517;27;45327;-58
2021/07/28 11:30:43;;;;;;;;;2.67;2.67;;;;;23.72;45.46;100732.06;5079310;27;45500;-58
2021/07/28 11:33:12;;;;;;;;;2.00;2.00;;;;;23.67;45.35;100736.09;5066870;27;48422;-58
2021/07/28 11:35:41;;;;;;;;;2.33;2.33;;;;;23.63;45.15;100731.88;5079081;27;45785;-60